sensor_id;sensor_type;location;lat;lon;timestamp;temperature;humidity
5705;DHT22;2877;48.238;11.160;2022-07-06T00:01:48;16.10;93.20
5705;DHT22;2877;48.238;11.160;2022-07-06T00:04:16;16.10;93.60
5705;DHT22;2877;48.238;11.160;2022-07-06T00:06:42;16.10;93.90
5705;DHT22;2877;48.238;11.160;2022-07-06T00:09:07;16.30;94.60
5705;DHT22;2877;48.238;11.160;2022-07-06T00:11:33;16.30;93.90
5705;DHT22;2877;48.238;11.160;2022-07-06T00:13:59;16.20;93.90
5705;DHT22;2877;48.238;11.160;2022-07-06T00:16:24;16.10;94.50
5705;DHT22;2877;48.238;11.160;2022-07-06T00:18:51;16.00;94.70
5705;DHT22;2877;48.238;11.160;2022-07-06T00:21:17;16.00;94.80
5705;DHT22;2877;48.238;11.160;2022-07-06T00:23:42;16.00;95.60
5705;DHT22;2877;48.238;11.160;2022-07-06T00:26:08;16.00;96.20
5705;DHT22;2877;48.238;11.160;2022-07-06T00:28:34;16.00;96.30
5705;DHT22;2877;48.238;11.160;2022-07-06T00:30:59;15.90;96.70
5705;DHT22;2877;48.238;11.160;2022-07-06T00:33:25;15.90;96.70
5705;DHT22;2877;48.238;11.160;2022-07-06T00:35:51;15.90;97.00
5705;DHT22;2877;48.238;11.160;2022-07-06T00:38:16;15.90;96.80
5705;DHT22;2877;48.238;11.160;2022-07-06T00:40:42;15.90;97.00
5705;DHT22;2877;48.238;11.160;2022-07-06T00:43:08;15.90;97.40
5705;DHT22;2877;48.238;11.160;2022-07-06T00:45:33;15.80;97.80
5705;DHT22;2877;48.238;11.160;2022-07-06T00:47:59;15.70;97.90
5705;DHT22;2877;48.238;11.160;2022-07-06T00:50:25;15.70;98.90
5705;DHT22;2877;48.238;11.160;2022-07-06T00:52:55;15.70;99.30
5705;DHT22;2877;48.238;11.160;2022-07-06T00:55:26;15.60;99.50
5705;DHT22;2877;48.238;11.160;2022-07-06T00:57:53;15.60;99.70
5705;DHT22;2877;48.238;11.160;2022-07-06T01:00:24;15.50;99.90
5705;DHT22;2877;48.238;11.160;2022-07-06T01:02:51;15.50;99.90
5705;DHT22;2877;48.238;11.160;2022-07-06T01:05:17;15.30;99.90
5705;DHT22;2877;48.238;11.160;2022-07-06T01:07:45;15.20;99.90
5705;DHT22;2877;48.238;11.160;2022-07-06T01:10:12;15.20;99.90
5705;DHT22;2877;48.238;11.160;2022-07-06T01:12:40;15.40;99.90
5705;DHT22;2877;48.238;11.160;2022-07-06T01:15:08;15.40;99.90
5705;DHT22;2877;48.238;11.160;2022-07-06T01:17:34;15.40;99.90
5705;DHT22;2877;48.238;11.160;2022-07-06T01:20:26;15.40;99.90
5705;DHT22;2877;48.238;11.160;2022-07-06T01:22:53;15.30;99.90
5705;DHT22;2877;48.238;11.160;2022-07-06T01:25:20;15.20;99.90
5705;DHT22;2877;48.238;11.160;2022-07-06T01:27:46;15.20;99.90
5705;DHT22;2877;48.238;11.160;2022-07-06T01:30:14;15.10;99.90
5705;DHT22;2877;48.238;11.160;2022-07-06T01:32:41;15.00;99.90
5705;DHT22;2877;48.238;11.160;2022-07-06T01:35:09;15.00;99.90
5705;DHT22;2877;48.238;11.160;2022-07-06T01:37:35;14.90;99.90
5705;DHT22;2877;48.238;11.160;2022-07-06T01:40:03;14.90;99.90
5705;DHT22;2877;48.238;11.160;2022-07-06T01:42:29;14.90;99.90
5705;DHT22;2877;48.238;11.160;2022-07-06T01:44:55;14.90;99.90
5705;DHT22;2877;48.238;11.160;2022-07-06T01:47:20;14.90;99.90
5705;DHT22;2877;48.238;11.160;2022-07-06T01:49:46;14.80;99.90
5705;DHT22;2877;48.238;11.160;2022-07-06T01:52:12;14.70;99.90
5705;DHT22;2877;48.238;11.160;2022-07-06T01:54:38;14.60;99.90
5705;DHT22;2877;48.238;11.160;2022-07-06T01:57:03;14.60;99.90
5705;DHT22;2877;48.238;11.160;2022-07-06T01:59:29;14.60;99.90
5705;DHT22;2877;48.238;11.160;2022-07-06T02:01:54;14.60;99.90
5705;DHT22;2877;48.238;11.160;2022-07-06T02:04:20;14.60;99.90
5705;DHT22;2877;48.238;11.160;2022-07-06T02:06:45;14.60;99.90
5705;DHT22;2877;48.238;11.160;2022-07-06T02:09:11;14.60;99.90
5705;DHT22;2877;48.238;11.160;2022-07-06T02:11:37;14.60;99.90
5705;DHT22;2877;48.238;11.160;2022-07-06T02:14:02;14.60;99.90
5705;DHT22;2877;48.238;11.160;2022-07-06T02:16:28;14.50;99.90
5705;DHT22;2877;48.238;11.160;2022-07-06T02:18:53;14.50;99.90
5705;DHT22;2877;48.238;11.160;2022-07-06T02:21:19;14.50;99.90
5705;DHT22;2877;48.238;11.160;2022-07-06T02:23:44;14.50;99.90
5705;DHT22;2877;48.238;11.160;2022-07-06T02:26:10;14.40;99.90
5705;DHT22;2877;48.238;11.160;2022-07-06T02:28:36;14.40;99.90
5705;DHT22;2877;48.238;11.160;2022-07-06T02:31:01;14.30;99.90
5705;DHT22;2877;48.238;11.160;2022-07-06T02:33:27;14.40;99.90
5705;DHT22;2877;48.238;11.160;2022-07-06T02:35:52;14.40;99.90
5705;DHT22;2877;48.238;11.160;2022-07-06T02:38:18;14.30;99.90
5705;DHT22;2877;48.238;11.160;2022-07-06T02:40:43;14.30;99.90
5705;DHT22;2877;48.238;11.160;2022-07-06T02:43:09;14.20;99.90
5705;DHT22;2877;48.238;11.160;2022-07-06T02:45:35;14.20;99.90
5705;DHT22;2877;48.238;11.160;2022-07-06T02:48:01;14.30;99.90
5705;DHT22;2877;48.238;11.160;2022-07-06T02:50:26;14.20;99.90
5705;DHT22;2877;48.238;11.160;2022-07-06T02:52:52;14.20;99.90
5705;DHT22;2877;48.238;11.160;2022-07-06T02:55:18;14.10;99.90
5705;DHT22;2877;48.238;11.160;2022-07-06T02:57:43;14.10;99.90
5705;DHT22;2877;48.238;11.160;2022-07-06T03:00:09;14.20;99.90
5705;DHT22;2877;48.238;11.160;2022-07-06T03:02:35;14.20;99.90
5705;DHT22;2877;48.238;11.160;2022-07-06T03:05:01;14.20;99.90
5705;DHT22;2877;48.238;11.160;2022-07-06T03:07:27;14.20;99.90
5705;DHT22;2877;48.238;11.160;2022-07-06T03:09:52;14.20;99.90
5705;DHT22;2877;48.238;11.160;2022-07-06T03:12:18;14.30;99.90
5705;DHT22;2877;48.238;11.160;2022-07-06T03:14:44;14.30;99.90
5705;DHT22;2877;48.238;11.160;2022-07-06T03:17:09;14.30;99.90
5705;DHT22;2877;48.238;11.160;2022-07-06T03:19:35;14.30;99.90
5705;DHT22;2877;48.238;11.160;2022-07-06T03:22:01;14.40;99.90
5705;DHT22;2877;48.238;11.160;2022-07-06T03:24:26;14.40;99.90
5705;DHT22;2877;48.238;11.160;2022-07-06T03:26:53;14.50;99.90
5705;DHT22;2877;48.238;11.160;2022-07-06T03:29:18;14.50;99.90
5705;DHT22;2877;48.238;11.160;2022-07-06T03:31:44;14.50;99.90
5705;DHT22;2877;48.238;11.160;2022-07-06T03:34:09;14.60;99.90
5705;DHT22;2877;48.238;11.160;2022-07-06T03:36:35;14.60;99.90
5705;DHT22;2877;48.238;11.160;2022-07-06T03:39:01;14.60;99.90
5705;DHT22;2877;48.238;11.160;2022-07-06T03:41:26;14.60;99.90
5705;DHT22;2877;48.238;11.160;2022-07-06T03:43:52;14.60;99.90
5705;DHT22;2877;48.238;11.160;2022-07-06T03:46:17;14.50;99.90
5705;DHT22;2877;48.238;11.160;2022-07-06T03:48:43;14.50;99.90
5705;DHT22;2877;48.238;11.160;2022-07-06T03:51:08;14.50;99.90
5705;DHT22;2877;48.238;11.160;2022-07-06T03:53:35;14.60;99.90
5705;DHT22;2877;48.238;11.160;2022-07-06T03:56:01;14.60;99.90
5705;DHT22;2877;48.238;11.160;2022-07-06T03:58:45;14.70;99.90
5705;DHT22;2877;48.238;11.160;2022-07-06T04:01:11;14.70;99.90
5705;DHT22;2877;48.238;11.160;2022-07-06T04:03:37;14.80;99.90
5705;DHT22;2877;48.238;11.160;2022-07-06T04:06:03;14.80;99.90
5705;DHT22;2877;48.238;11.160;2022-07-06T04:08:28;15.00;99.90
5705;DHT22;2877;48.238;11.160;2022-07-06T04:10:54;15.10;99.90
5705;DHT22;2877;48.238;11.160;2022-07-06T04:13:19;15.10;99.90
5705;DHT22;2877;48.238;11.160;2022-07-06T04:15:45;15.20;99.90
5705;DHT22;2877;48.238;11.160;2022-07-06T04:18:10;15.30;99.90
5705;DHT22;2877;48.238;11.160;2022-07-06T04:20:36;15.30;99.90
5705;DHT22;2877;48.238;11.160;2022-07-06T04:23:02;15.40;99.90
5705;DHT22;2877;48.238;11.160;2022-07-06T04:25:27;15.40;99.90
5705;DHT22;2877;48.238;11.160;2022-07-06T04:27:53;15.40;99.90
5705;DHT22;2877;48.238;11.160;2022-07-06T04:30:19;15.50;99.90
5705;DHT22;2877;48.238;11.160;2022-07-06T04:32:44;15.60;99.90
5705;DHT22;2877;48.238;11.160;2022-07-06T04:35:10;15.70;99.90
5705;DHT22;2877;48.238;11.160;2022-07-06T04:37:36;15.70;99.90
5705;DHT22;2877;48.238;11.160;2022-07-06T04:40:02;15.80;99.90
5705;DHT22;2877;48.238;11.160;2022-07-06T04:42:27;15.80;99.90
5705;DHT22;2877;48.238;11.160;2022-07-06T04:44:53;15.80;99.90
5705;DHT22;2877;48.238;11.160;2022-07-06T04:47:18;15.80;99.90
5705;DHT22;2877;48.238;11.160;2022-07-06T04:49:44;15.80;99.90
5705;DHT22;2877;48.238;11.160;2022-07-06T04:52:09;15.80;99.90
5705;DHT22;2877;48.238;11.160;2022-07-06T04:54:35;15.80;99.90
5705;DHT22;2877;48.238;11.160;2022-07-06T04:57:01;15.70;99.90
5705;DHT22;2877;48.238;11.160;2022-07-06T04:59:26;15.70;99.90
5705;DHT22;2877;48.238;11.160;2022-07-06T05:01:52;15.80;99.90
5705;DHT22;2877;48.238;11.160;2022-07-06T05:04:17;16.00;99.90
5705;DHT22;2877;48.238;11.160;2022-07-06T05:06:46;16.10;99.90
5705;DHT22;2877;48.238;11.160;2022-07-06T05:09:12;16.10;99.90
5705;DHT22;2877;48.238;11.160;2022-07-06T05:11:38;16.10;99.90
5705;DHT22;2877;48.238;11.160;2022-07-06T05:14:05;16.20;99.90
5705;DHT22;2877;48.238;11.160;2022-07-06T05:16:31;16.10;99.90
5705;DHT22;2877;48.238;11.160;2022-07-06T05:18:57;16.20;99.90
5705;DHT22;2877;48.238;11.160;2022-07-06T05:21:22;16.20;99.90
5705;DHT22;2877;48.238;11.160;2022-07-06T05:23:48;16.20;99.90
5705;DHT22;2877;48.238;11.160;2022-07-06T05:26:13;16.30;99.90
5705;DHT22;2877;48.238;11.160;2022-07-06T05:28:39;16.40;99.90
5705;DHT22;2877;48.238;11.160;2022-07-06T05:31:05;16.50;99.90
5705;DHT22;2877;48.238;11.160;2022-07-06T05:33:31;16.60;99.90
5705;DHT22;2877;48.238;11.160;2022-07-06T05:35:56;16.60;99.90
5705;DHT22;2877;48.238;11.160;2022-07-06T05:38:22;16.60;99.90
5705;DHT22;2877;48.238;11.160;2022-07-06T05:40:47;16.60;99.90
5705;DHT22;2877;48.238;11.160;2022-07-06T05:43:13;16.40;99.90
5705;DHT22;2877;48.238;11.160;2022-07-06T05:45:39;16.40;99.90
5705;DHT22;2877;48.238;11.160;2022-07-06T05:48:04;16.50;99.90
5705;DHT22;2877;48.238;11.160;2022-07-06T05:50:48;16.50;99.90
5705;DHT22;2877;48.238;11.160;2022-07-06T05:53:14;16.60;99.90
5705;DHT22;2877;48.238;11.160;2022-07-06T05:55:39;16.70;99.90
5705;DHT22;2877;48.238;11.160;2022-07-06T05:58:05;16.80;99.90
5705;DHT22;2877;48.238;11.160;2022-07-06T06:00:31;16.90;99.90
5705;DHT22;2877;48.238;11.160;2022-07-06T06:02:58;17.00;99.90
5705;DHT22;2877;48.238;11.160;2022-07-06T06:05:24;16.90;99.90
5705;DHT22;2877;48.238;11.160;2022-07-06T06:07:49;16.80;99.90
5705;DHT22;2877;48.238;11.160;2022-07-06T06:10:17;16.80;99.90
5705;DHT22;2877;48.238;11.160;2022-07-06T06:12:44;16.90;99.90
5705;DHT22;2877;48.238;11.160;2022-07-06T06:15:10;17.00;99.90
5705;DHT22;2877;48.238;11.160;2022-07-06T06:17:37;17.10;99.90
5705;DHT22;2877;48.238;11.160;2022-07-06T06:20:05;17.20;99.90
5705;DHT22;2877;48.238;11.160;2022-07-06T06:22:32;17.20;99.90
5705;DHT22;2877;48.238;11.160;2022-07-06T06:24:57;17.30;99.90
5705;DHT22;2877;48.238;11.160;2022-07-06T06:27:23;17.40;99.90
5705;DHT22;2877;48.238;11.160;2022-07-06T06:29:48;17.40;99.90
5705;DHT22;2877;48.238;11.160;2022-07-06T06:32:14;17.60;99.90
5705;DHT22;2877;48.238;11.160;2022-07-06T06:34:40;17.60;99.90
5705;DHT22;2877;48.238;11.160;2022-07-06T06:37:06;17.70;99.90
5705;DHT22;2877;48.238;11.160;2022-07-06T06:39:31;17.90;99.90
5705;DHT22;2877;48.238;11.160;2022-07-06T06:41:57;17.90;99.90
5705;DHT22;2877;48.238;11.160;2022-07-06T06:44:23;18.00;99.90
5705;DHT22;2877;48.238;11.160;2022-07-06T06:46:49;18.10;99.90
5705;DHT22;2877;48.238;11.160;2022-07-06T06:49:15;18.20;99.90
5705;DHT22;2877;48.238;11.160;2022-07-06T06:51:41;18.20;99.90
5705;DHT22;2877;48.238;11.160;2022-07-06T06:54:07;18.20;99.90
5705;DHT22;2877;48.238;11.160;2022-07-06T06:56:33;18.00;99.90
5705;DHT22;2877;48.238;11.160;2022-07-06T06:58:58;18.10;99.90
5705;DHT22;2877;48.238;11.160;2022-07-06T07:01:24;18.30;99.90
5705;DHT22;2877;48.238;11.160;2022-07-06T07:03:53;18.40;99.90
5705;DHT22;2877;48.238;11.160;2022-07-06T07:06:21;18.50;99.90
5705;DHT22;2877;48.238;11.160;2022-07-06T07:08:46;18.60;99.90
5705;DHT22;2877;48.238;11.160;2022-07-06T07:11:12;18.60;99.90
5705;DHT22;2877;48.238;11.160;2022-07-06T07:13:38;18.80;99.90
5705;DHT22;2877;48.238;11.160;2022-07-06T07:16:04;18.80;99.90
5705;DHT22;2877;48.238;11.160;2022-07-06T07:18:30;18.90;99.90
5705;DHT22;2877;48.238;11.160;2022-07-06T07:20:55;19.10;99.90
5705;DHT22;2877;48.238;11.160;2022-07-06T07:23:21;19.20;99.90
5705;DHT22;2877;48.238;11.160;2022-07-06T07:25:47;19.40;99.90
5705;DHT22;2877;48.238;11.160;2022-07-06T07:28:12;19.40;99.90
5705;DHT22;2877;48.238;11.160;2022-07-06T07:30:38;19.60;99.90
5705;DHT22;2877;48.238;11.160;2022-07-06T07:33:03;19.60;99.90
5705;DHT22;2877;48.238;11.160;2022-07-06T07:35:29;19.30;99.90
5705;DHT22;2877;48.238;11.160;2022-07-06T07:37:55;19.20;99.90
5705;DHT22;2877;48.238;11.160;2022-07-06T07:40:20;19.20;99.90
5705;DHT22;2877;48.238;11.160;2022-07-06T07:42:47;19.30;99.90
5705;DHT22;2877;48.238;11.160;2022-07-06T07:45:12;19.30;99.90
5705;DHT22;2877;48.238;11.160;2022-07-06T07:47:39;19.30;99.90
5705;DHT22;2877;48.238;11.160;2022-07-06T07:50:05;19.40;99.90
5705;DHT22;2877;48.238;11.160;2022-07-06T07:52:31;19.40;99.90
5705;DHT22;2877;48.238;11.160;2022-07-06T07:54:57;19.40;99.90
5705;DHT22;2877;48.238;11.160;2022-07-06T07:57:22;19.40;99.90
5705;DHT22;2877;48.238;11.160;2022-07-06T07:59:48;19.70;99.90
5705;DHT22;2877;48.238;11.160;2022-07-06T08:02:14;20.10;99.90
5705;DHT22;2877;48.238;11.160;2022-07-06T08:04:39;20.20;99.90
5705;DHT22;2877;48.238;11.160;2022-07-06T08:07:05;20.30;99.90
5705;DHT22;2877;48.238;11.160;2022-07-06T08:09:31;20.20;99.90
5705;DHT22;2877;48.238;11.160;2022-07-06T08:11:57;20.30;99.90
5705;DHT22;2877;48.238;11.160;2022-07-06T08:14:23;20.40;99.90
5705;DHT22;2877;48.238;11.160;2022-07-06T08:16:49;20.60;99.90
5705;DHT22;2877;48.238;11.160;2022-07-06T08:19:15;20.70;99.90
5705;DHT22;2877;48.238;11.160;2022-07-06T08:21:41;21.00;99.90
5705;DHT22;2877;48.238;11.160;2022-07-06T08:24:07;21.20;99.90
5705;DHT22;2877;48.238;11.160;2022-07-06T08:26:33;21.40;99.50
5705;DHT22;2877;48.238;11.160;2022-07-06T08:28:59;21.50;97.70
5705;DHT22;2877;48.238;11.160;2022-07-06T08:31:26;21.70;97.10
5705;DHT22;2877;48.238;11.160;2022-07-06T08:33:53;21.90;95.80
5705;DHT22;2877;48.238;11.160;2022-07-06T08:36:19;21.90;95.00
5705;DHT22;2877;48.238;11.160;2022-07-06T08:38:45;21.90;95.30
5705;DHT22;2877;48.238;11.160;2022-07-06T08:41:11;21.70;94.80
5705;DHT22;2877;48.238;11.160;2022-07-06T08:43:39;21.30;95.10
5705;DHT22;2877;48.238;11.160;2022-07-06T08:46:05;21.50;95.10
5705;DHT22;2877;48.238;11.160;2022-07-06T08:48:36;22.00;94.50
5705;DHT22;2877;48.238;11.160;2022-07-06T08:51:02;21.80;93.80
5705;DHT22;2877;48.238;11.160;2022-07-06T08:53:28;21.70;94.70
5705;DHT22;2877;48.238;11.160;2022-07-06T08:55:54;21.80;95.30
5705;DHT22;2877;48.238;11.160;2022-07-06T08:58:23;21.80;92.30
5705;DHT22;2877;48.238;11.160;2022-07-06T09:00:49;21.50;93.10
5705;DHT22;2877;48.238;11.160;2022-07-06T09:03:14;21.80;92.90
5705;DHT22;2877;48.238;11.160;2022-07-06T09:05:40;22.10;91.90
5705;DHT22;2877;48.238;11.160;2022-07-06T09:08:10;21.90;92.20
5705;DHT22;2877;48.238;11.160;2022-07-06T09:10:36;21.90;92.80
5705;DHT22;2877;48.238;11.160;2022-07-06T09:13:06;21.90;91.30
5705;DHT22;2877;48.238;11.160;2022-07-06T09:15:34;21.60;92.80
5705;DHT22;2877;48.238;11.160;2022-07-06T09:18:01;21.50;92.30
5705;DHT22;2877;48.238;11.160;2022-07-06T09:20:26;22.00;92.10
5705;DHT22;2877;48.238;11.160;2022-07-06T09:23:00;22.10;92.50
5705;DHT22;2877;48.238;11.160;2022-07-06T09:25:27;22.30;91.50
5705;DHT22;2877;48.238;11.160;2022-07-06T09:27:53;22.50;91.10
5705;DHT22;2877;48.238;11.160;2022-07-06T09:30:22;22.40;91.00
5705;DHT22;2877;48.238;11.160;2022-07-06T09:32:50;22.30;90.40
5705;DHT22;2877;48.238;11.160;2022-07-06T09:40:31;22.90;86.90
5705;DHT22;2877;48.238;11.160;2022-07-06T09:45:45;23.40;84.30
5705;DHT22;2877;48.238;11.160;2022-07-06T09:48:15;23.60;83.50
5705;DHT22;2877;48.238;11.160;2022-07-06T09:51:16;23.50;84.00
5705;DHT22;2877;48.238;11.160;2022-07-06T09:53:41;23.40;81.70
5705;DHT22;2877;48.238;11.160;2022-07-06T09:56:07;23.80;83.80
5705;DHT22;2877;48.238;11.160;2022-07-06T09:58:38;23.90;81.40
5705;DHT22;2877;48.238;11.160;2022-07-06T10:01:03;23.60;77.50
5705;DHT22;2877;48.238;11.160;2022-07-06T10:03:29;23.60;80.10
5705;DHT22;2877;48.238;11.160;2022-07-06T10:05:57;23.40;78.80
5705;DHT22;2877;48.238;11.160;2022-07-06T10:08:23;23.70;82.40
5705;DHT22;2877;48.238;11.160;2022-07-06T10:10:48;23.80;82.10
5705;DHT22;2877;48.238;11.160;2022-07-06T10:13:20;23.70;81.10
5705;DHT22;2877;48.238;11.160;2022-07-06T10:15:47;23.70;78.20
5705;DHT22;2877;48.238;11.160;2022-07-06T10:18:14;24.10;78.40
5705;DHT22;2877;48.238;11.160;2022-07-06T10:20:39;24.00;77.50
5705;DHT22;2877;48.238;11.160;2022-07-06T10:23:08;23.40;79.10
5705;DHT22;2877;48.238;11.160;2022-07-06T10:25:34;23.50;81.20
5705;DHT22;2877;48.238;11.160;2022-07-06T10:28:00;23.90;81.70
5705;DHT22;2877;48.238;11.160;2022-07-06T10:30:28;24.10;78.20
5705;DHT22;2877;48.238;11.160;2022-07-06T10:32:56;24.50;76.30
5705;DHT22;2877;48.238;11.160;2022-07-06T10:35:24;24.60;73.40
5705;DHT22;2877;48.238;11.160;2022-07-06T10:38:08;24.20;73.60
5705;DHT22;2877;48.238;11.160;2022-07-06T10:40:38;24.40;71.90
5705;DHT22;2877;48.238;11.160;2022-07-06T10:43:23;24.60;73.70
5705;DHT22;2877;48.238;11.160;2022-07-06T10:53:32;25.00;69.90
5705;DHT22;2877;48.238;11.160;2022-07-06T10:55:59;25.40;69.60
5705;DHT22;2877;48.238;11.160;2022-07-06T11:01:04;24.60;71.10
5705;DHT22;2877;48.238;11.160;2022-07-06T11:03:38;24.20;71.40
5705;DHT22;2877;48.238;11.160;2022-07-06T11:06:18;24.50;71.80
5705;DHT22;2877;48.238;11.160;2022-07-06T11:08:49;24.70;72.00
5705;DHT22;2877;48.238;11.160;2022-07-06T11:16:26;24.30;72.10
5705;DHT22;2877;48.238;11.160;2022-07-06T11:19:06;24.60;72.80
5705;DHT22;2877;48.238;11.160;2022-07-06T11:21:35;24.90;73.00
5705;DHT22;2877;48.238;11.160;2022-07-06T11:24:01;24.70;71.00
5705;DHT22;2877;48.238;11.160;2022-07-06T11:26:27;25.00;69.10
5705;DHT22;2877;48.238;11.160;2022-07-06T11:28:53;25.30;71.40
5705;DHT22;2877;48.238;11.160;2022-07-06T11:31:19;25.00;70.00
5705;DHT22;2877;48.238;11.160;2022-07-06T11:33:46;25.40;70.10
5705;DHT22;2877;48.238;11.160;2022-07-06T11:36:19;26.20;70.60
5705;DHT22;2877;48.238;11.160;2022-07-06T11:38:46;26.20;67.70
5705;DHT22;2877;48.238;11.160;2022-07-06T11:41:13;26.20;65.70
5705;DHT22;2877;48.238;11.160;2022-07-06T11:43:44;26.90;65.40
5705;DHT22;2877;48.238;11.160;2022-07-06T11:46:33;26.60;65.50
5705;DHT22;2877;48.238;11.160;2022-07-06T11:49:01;26.40;65.80
5705;DHT22;2877;48.238;11.160;2022-07-06T11:51:32;25.80;64.90
5705;DHT22;2877;48.238;11.160;2022-07-06T11:54:11;25.60;69.40
5705;DHT22;2877;48.238;11.160;2022-07-06T11:56:37;25.80;68.90
5705;DHT22;2877;48.238;11.160;2022-07-06T11:59:03;26.20;66.80
5705;DHT22;2877;48.238;11.160;2022-07-06T12:01:30;26.50;63.80
5705;DHT22;2877;48.238;11.160;2022-07-06T12:04:00;26.70;63.30
5705;DHT22;2877;48.238;11.160;2022-07-06T12:06:28;26.00;62.70
5705;DHT22;2877;48.238;11.160;2022-07-06T12:09:00;26.00;64.80
5705;DHT22;2877;48.238;11.160;2022-07-06T12:11:31;25.60;61.70
5705;DHT22;2877;48.238;11.160;2022-07-06T12:13:59;25.30;64.00
5705;DHT22;2877;48.238;11.160;2022-07-06T12:16:34;24.60;64.90
5705;DHT22;2877;48.238;11.160;2022-07-06T12:19:03;24.40;67.30
5705;DHT22;2877;48.238;11.160;2022-07-06T12:21:29;24.30;69.00
5705;DHT22;2877;48.238;11.160;2022-07-06T12:23:55;24.40;67.40
5705;DHT22;2877;48.238;11.160;2022-07-06T12:26:23;24.80;67.70
5705;DHT22;2877;48.238;11.160;2022-07-06T12:29:23;25.90;66.50
5705;DHT22;2877;48.238;11.160;2022-07-06T12:31:54;26.60;62.30
5705;DHT22;2877;48.238;11.160;2022-07-06T12:34:28;27.20;60.50
5705;DHT22;2877;48.238;11.160;2022-07-06T12:36:59;26.70;61.40
5705;DHT22;2877;48.238;11.160;2022-07-06T12:39:30;26.60;60.70
5705;DHT22;2877;48.238;11.160;2022-07-06T12:42:03;25.90;60.00
5705;DHT22;2877;48.238;11.160;2022-07-06T12:44:30;25.30;60.60
5705;DHT22;2877;48.238;11.160;2022-07-06T12:47:04;25.00;62.80
5705;DHT22;2877;48.238;11.160;2022-07-06T12:49:31;24.90;64.10
5705;DHT22;2877;48.238;11.160;2022-07-06T12:54:31;25.90;60.10
5705;DHT22;2877;48.238;11.160;2022-07-06T12:57:08;25.90;60.70
5705;DHT22;2877;48.238;11.160;2022-07-06T12:59:39;25.20;60.00
5705;DHT22;2877;48.238;11.160;2022-07-06T13:02:06;25.80;62.00
5705;DHT22;2877;48.238;11.160;2022-07-06T13:04:33;26.70;58.10
5705;DHT22;2877;48.238;11.160;2022-07-06T13:07:00;27.10;55.60
5705;DHT22;2877;48.238;11.160;2022-07-06T13:09:27;26.70;57.40
5705;DHT22;2877;48.238;11.160;2022-07-06T13:11:53;27.20;59.30
5705;DHT22;2877;48.238;11.160;2022-07-06T13:14:19;27.10;57.90
5705;DHT22;2877;48.238;11.160;2022-07-06T13:16:45;27.70;56.80
5705;DHT22;2877;48.238;11.160;2022-07-06T13:19:12;27.50;54.80
5705;DHT22;2877;48.238;11.160;2022-07-06T13:21:37;26.60;56.60
5705;DHT22;2877;48.238;11.160;2022-07-06T13:24:04;26.60;58.40
5705;DHT22;2877;48.238;11.160;2022-07-06T13:26:30;27.10;56.40
5705;DHT22;2877;48.238;11.160;2022-07-06T13:29:01;27.80;55.40
5705;DHT22;2877;48.238;11.160;2022-07-06T13:31:27;27.20;54.50
5705;DHT22;2877;48.238;11.160;2022-07-06T13:33:54;26.60;55.20
5705;DHT22;2877;48.238;11.160;2022-07-06T13:36:19;27.40;56.30
5705;DHT22;2877;48.238;11.160;2022-07-06T13:38:45;27.90;54.30
5705;DHT22;2877;48.238;11.160;2022-07-06T13:41:11;28.70;53.10
5705;DHT22;2877;48.238;11.160;2022-07-06T13:43:36;30.30;52.20
5705;DHT22;2877;48.238;11.160;2022-07-06T14:58:03;27.30;48.00
5705;DHT22;2877;48.238;11.160;2022-07-06T15:00:28;29.80;46.80
5705;DHT22;2877;48.238;11.160;2022-07-06T15:02:54;30.70;45.30
5705;DHT22;2877;48.238;11.160;2022-07-06T15:05:20;31.80;43.80
5705;DHT22;2877;48.238;11.160;2022-07-06T15:07:46;31.60;44.10
5705;DHT22;2877;48.238;11.160;2022-07-06T15:10:11;31.70;43.30
5705;DHT22;2877;48.238;11.160;2022-07-06T15:12:37;32.50;43.90
5705;DHT22;2877;48.238;11.160;2022-07-06T15:15:03;32.40;42.00
5705;DHT22;2877;48.238;11.160;2022-07-06T15:17:29;31.90;43.40
5705;DHT22;2877;48.238;11.160;2022-07-06T15:19:57;31.70;43.40
5705;DHT22;2877;48.238;11.160;2022-07-06T15:22:22;30.60;44.80
5705;DHT22;2877;48.238;11.160;2022-07-06T15:24:48;29.40;47.10
5705;DHT22;2877;48.238;11.160;2022-07-06T15:27:13;28.30;47.60
5705;DHT22;2877;48.238;11.160;2022-07-06T15:29:39;27.10;51.70
5705;DHT22;2877;48.238;11.160;2022-07-06T15:32:05;26.50;51.40
5705;DHT22;2877;48.238;11.160;2022-07-06T15:34:31;25.80;51.90
5705;DHT22;2877;48.238;11.160;2022-07-06T15:36:57;25.70;52.20
5705;DHT22;2877;48.238;11.160;2022-07-06T15:39:22;25.80;53.50
5705;DHT22;2877;48.238;11.160;2022-07-06T15:41:48;25.60;53.60
5705;DHT22;2877;48.238;11.160;2022-07-06T15:44:14;25.90;53.80
5705;DHT22;2877;48.238;11.160;2022-07-06T15:46:39;26.00;51.90
5705;DHT22;2877;48.238;11.160;2022-07-06T15:49:05;25.90;53.60
5705;DHT22;2877;48.238;11.160;2022-07-06T15:51:31;26.00;53.40
5705;DHT22;2877;48.238;11.160;2022-07-06T15:53:56;25.80;52.70
5705;DHT22;2877;48.238;11.160;2022-07-06T15:56:22;25.90;52.50
5705;DHT22;2877;48.238;11.160;2022-07-06T15:58:48;26.20;53.90
5705;DHT22;2877;48.238;11.160;2022-07-06T16:01:13;26.80;52.60
5705;DHT22;2877;48.238;11.160;2022-07-06T16:03:39;27.30;51.80
5705;DHT22;2877;48.238;11.160;2022-07-06T16:06:06;27.10;51.10
5705;DHT22;2877;48.238;11.160;2022-07-06T16:08:32;26.00;52.60
5705;DHT22;2877;48.238;11.160;2022-07-06T16:10:57;26.50;52.20
5705;DHT22;2877;48.238;11.160;2022-07-06T16:13:23;27.70;51.70
5705;DHT22;2877;48.238;11.160;2022-07-06T16:15:48;28.90;50.20
5705;DHT22;2877;48.238;11.160;2022-07-06T16:18:14;30.20;47.80
5705;DHT22;2877;48.238;11.160;2022-07-06T16:20:40;31.50;47.00
5705;DHT22;2877;48.238;11.160;2022-07-06T16:23:06;31.50;46.00
5705;DHT22;2877;48.238;11.160;2022-07-06T16:25:31;31.40;47.20
5705;DHT22;2877;48.238;11.160;2022-07-06T16:27:57;31.50;44.60
5705;DHT22;2877;48.238;11.160;2022-07-06T16:30:27;30.30;46.50
5705;DHT22;2877;48.238;11.160;2022-07-06T16:32:53;31.00;46.20
5705;DHT22;2877;48.238;11.160;2022-07-06T16:35:19;31.00;45.50
5705;DHT22;2877;48.238;11.160;2022-07-06T16:37:45;31.60;45.10
5705;DHT22;2877;48.238;11.160;2022-07-06T16:40:11;32.60;45.00
5705;DHT22;2877;48.238;11.160;2022-07-06T16:42:37;32.70;42.70
5705;DHT22;2877;48.238;11.160;2022-07-06T16:45:03;32.60;42.70
5705;DHT22;2877;48.238;11.160;2022-07-06T16:47:29;32.60;44.10
5705;DHT22;2877;48.238;11.160;2022-07-06T16:49:55;32.10;44.20
5705;DHT22;2877;48.238;11.160;2022-07-06T16:52:23;32.60;44.20
5705;DHT22;2877;48.238;11.160;2022-07-06T16:54:49;32.30;43.50
5705;DHT22;2877;48.238;11.160;2022-07-06T16:57:14;31.90;44.10
5705;DHT22;2877;48.238;11.160;2022-07-06T16:59:40;32.20;44.60
5705;DHT22;2877;48.238;11.160;2022-07-06T17:02:06;32.70;44.50
5705;DHT22;2877;48.238;11.160;2022-07-06T17:04:31;33.20;43.00
5705;DHT22;2877;48.238;11.160;2022-07-06T17:06:57;33.50;42.20
5705;DHT22;2877;48.238;11.160;2022-07-06T17:09:23;33.30;40.70
5705;DHT22;2877;48.238;11.160;2022-07-06T17:11:48;32.00;42.50
5705;DHT22;2877;48.238;11.160;2022-07-06T17:14:14;31.80;42.30
5705;DHT22;2877;48.238;11.160;2022-07-06T17:16:39;31.90;42.70
5705;DHT22;2877;48.238;11.160;2022-07-06T17:19:05;33.00;42.50
5705;DHT22;2877;48.238;11.160;2022-07-06T17:21:31;33.50;40.70